Flight Track Log - Related Links

Times and Time Zones

All times are in EDT time to prevent confusion due to time zone crossing. See the UAL256 flight status page for this flight to view local times or setup timezone preferences in your user account.

Time Position Orientation Groundspeed Altitude Reporting Facility
EDT Latitude Longitude Course Direction KTS MPH feet Rate Location/Type
Sun 08:08:12 AM 39.9333 -104.7167 270° West 212 244 7,100  Level Denver TRACON
Sun 08:09:12 AM 39.9333 -104.8167 270° West 265 305 9,000 1,895 Climbing Denver TRACON
Sun 08:10:06 AM 39.9333 -104.9000 270° West 304 350 10,700 2,000 Climbing Denver TRACON
Sun 08:11:06 AM 39.9167 -105.0333 261° West 336 387 12,800 2,203 Climbing Denver TRACON
Sun 08:12:14 AM 39.9111 -105.1550 267° West 333 383 15,400 1,875 Climbing Denver Center
Sun 08:13:14 AM 39.8997 -105.2822 263° West 354 407 16,800 1,636 Climbing Denver Center
Sun 08:14:15 AM 39.8872 -105.4161 263° West 372 428 18,700 1,934 Climbing Denver Center
Sun 08:15:15 AM 39.8761 -105.5489 264° West 372 428 20,700 1,934 Climbing Denver Center
Sun 08:16:16 AM 39.8631 -105.6992 264° West 383 441 22,600 1,636 Climbing Denver Center
Sun 08:17:16 AM 39.8508 -105.8247 263° West 387 445 24,000 1,500 Climbing Denver Center
Sun 08:18:16 AM 39.8381 -105.9639 263° West 390 449 25,600 1,488 Climbing Denver Center
Sun 08:19:17 AM 39.8261 -106.1081 264° West 401 461 27,000 1,289 Climbing Denver Center
Sun 08:20:17 AM 39.8139 -106.2536 264° West 405 466 28,200 1,091 Climbing Denver Center
Sun 08:21:18 AM 39.7997 -106.4019 263° West 413 475 29,200 1,041 Climbing Denver Center
Sun 08:22:18 AM 39.7872 -106.5483 264° West 424 488 30,300 1,190 Climbing Denver Center
Sun 08:23:19 AM 39.7708 -106.6994 262° West 426 490 31,600 1,339 Climbing Denver Center
Sun 08:24:19 AM 39.7511 -106.8783 262° West 423 487 33,000 1,289 Climbing Denver Center
Sun 08:25:20 AM 39.7342 -107.0269 262° West 422 486 34,200 1,091 Climbing Denver Center
Sun 08:26:20 AM 39.7181 -107.1728 262° West 414 476 35,200 893 Climbing Denver Center
Sun 08:27:21 AM 39.7017 -107.3136 261° West 406 467 36,000 397 Climbing Denver Center
Sun 08:28:21 AM 39.6858 -107.4508 262° West 401 461 36,000  Level Denver Center
Sun 08:29:22 AM 39.6669 -107.6114 261° West 402 463 36,000  Level Denver Center
Sun 08:30:22 AM 39.6511 -107.7506 262° West 405 466 36,000  Level Denver Center
Sun 08:31:23 AM 39.6344 -107.8892 261° West 407 468 36,000  Level Denver Center
Sun 08:32:24 AM 39.6144 -108.0519 261° West 408 470 36,000  Level Denver Center
Sun 08:33:24 AM 39.5978 -108.1897 261° West 406 467 36,000  Level Denver Center
Sun 08:34:25 AM 39.5806 -108.3289 261° West 405 466 36,000  Level Denver Center
Sun 08:35:25 AM 39.5608 -108.4911 261° West 405 466 36,000  Level Denver Center
Sun 08:36:26 AM 39.5431 -108.6325 261° West 410 472 36,000  Level Denver Center
Sun 08:37:27 AM 39.5236 -108.7761 260° West 414 476 36,000  Level Denver Center
Sun 08:38:16 AM 39.5078 -108.8969 260° West 418 481 36,000  Level Salt Lake Center
Sun 08:39:16 AM 39.4906 -109.0375 261° West 413 475 36,000  Level Salt Lake Center
Sun 08:40:17 AM 39.4694 -109.2003 261° West 410 472 36,000  Level Salt Lake Center
Sun 08:41:17 AM 39.4519 -109.3383 261° West 407 468 36,000  Level Salt Lake Center
Sun 08:42:17 AM 39.4331 -109.4769 260° West 409 471 36,000  Level Salt Lake Center
Sun 08:43:18 AM 39.4153 -109.6164 261° West 409 471 36,000  Level Salt Lake Center
Sun 08:44:18 AM 39.3928 -109.7778 260° West 409 471 36,000  Level Salt Lake Center
Sun 08:45:19 AM 39.3733 -109.9158 260° West 408 470 36,000  Level Salt Lake Center
Sun 08:46:19 AM 39.3544 -110.0553 260° West 410 472 36,000  Level Salt Lake Center
Sun 08:47:19 AM 39.3319 -110.2175 260° West 412 474 36,000  Level Salt Lake Center
Sun 08:48:20 AM 39.3111 -110.3578 259° West 415 478 36,000  Level Salt Lake Center
Sun 08:49:20 AM 39.2919 -110.4986 260° West 416 479 36,000  Level Salt Lake Center
Sun 08:50:21 AM 39.2692 -110.6625 260° West 416 479 36,000  Level Salt Lake Center
Sun 08:51:21 AM 39.2489 -110.8028 259° West 415 478 36,000  Level Salt Lake Center
Sun 08:52:22 AM 39.2267 -110.9422 258° West 415 478 36,000  Level Salt Lake Center
Sun 08:53:22 AM 39.2069 -111.0825 260° West 414 476 36,000  Level Salt Lake Center
Sun 08:54:23 AM 39.1825 -111.2456 259° West 415 478 36,000  Level Salt Lake Center
Sun 08:55:23 AM 39.1642 -111.3775 260° West 415 478 36,000  Level Salt Lake Center
Sun 08:56:24 AM 39.1422 -111.5214 259° West 414 476 36,000  Level Salt Lake Center
Sun 08:57:24 AM 39.1197 -111.6656 259° West 412 474 36,000  Level Salt Lake Center
Sun 08:58:25 AM 39.0972 -111.8106 259° West 414 476 36,000  Level Salt Lake Center
Sun 08:59:25 AM 39.0736 -111.9547 258° West 414 476 36,000  Level Salt Lake Center
Sun 09:00:26 AM 39.0514 -112.0997 259° West 416 479 36,000  Level Salt Lake Center
Sun 09:01:26 AM 39.0242 -112.2719 259° West 412 474 36,000  Level Salt Lake Center
Sun 09:02:27 AM 39.0003 -112.4164 258° West 414 476 36,000  Level Salt Lake Center
Sun 09:03:27 AM 38.9772 -112.5597 258° West 412 474 36,000  Level Salt Lake Center
Sun 09:04:28 AM 38.9544 -112.7031 258° West 412 474 36,000  Level Salt Lake Center
Sun 09:05:28 AM 38.9308 -112.8467 258° West 412 474 36,000  Level Salt Lake Center
Sun 09:06:29 AM 38.9067 -112.9917 258° West 416 479 36,000  Level Salt Lake Center
Sun 09:07:29 AM 38.8822 -113.1356 258° West 416 479 36,000  Level Salt Lake Center
Sun 09:08:30 AM 38.8581 -113.2808 258° West 418 481 36,000  Level Salt Lake Center
Sun 09:09:31 AM 38.8331 -113.4269 258° West 421 484 36,000  Level Salt Lake Center
Sun 09:10:31 AM 38.8083 -113.5714 258° West 419 482 36,000  Level Salt Lake Center
Sun 09:11:32 AM 38.7839 -113.7153 258° West 417 480 36,000  Level Salt Lake Center
Sun 09:12:32 AM 38.7589 -113.8600 258° West 419 482 36,000  Level Salt Lake Center
Sun 09:13:33 AM 38.7333 -114.0058 257° West 421 484 36,000  Level Salt Lake Center
Sun 09:14:33 AM 38.7069 -114.1528 257° West 424 488 36,000  Level Salt Lake Center
Sun 09:15:34 AM 38.6808 -114.2997 257° West 426 490 36,000  Level Salt Lake Center
Sun 09:16:35 AM 38.6539 -114.4464 257° West 426 490 36,000  Level Salt Lake Center
Sun 09:17:35 AM 38.6275 -114.5953 257° West 430 495 36,000  Level Salt Lake Center
Sun 09:18:36 AM 38.5944 -114.7725 257° West 429 494 36,000  Level Salt Lake Center
Sun 09:19:36 AM 38.5675 -114.9192 257° West 427 491 36,000  Level Salt Lake Center
Sun 09:20:37 AM 38.5408 -115.0647 257° West 424 488 36,000  Level Salt Lake Center
Sun 09:21:37 AM 38.5133 -115.2122 257° West 427 491 36,000  Level Salt Lake Center
Sun 09:22:38 AM 38.4878 -115.3456 256° West 430 495 36,000  Level Salt Lake Center
Sun 09:23:39 AM 38.4589 -115.4947 256° West 433 498 36,000  Level Salt Lake Center
Sun 09:24:39 AM 38.4314 -115.6425 257° West 430 495 36,000  Level Salt Lake Center
Sun 09:25:40 AM 38.4028 -115.7914 256° West 431 496 36,000  Level Salt Lake Center
Sun 09:26:41 AM 38.3739 -115.9392 256° West 431 496 36,000  Level Salt Lake Center
Sun 09:27:41 AM 38.3458 -116.0867 256° West 429 494 36,000  Level Salt Lake Center
Sun 09:28:42 AM 38.3103 -116.2636 256° West 430 495 36,000  Level Salt Lake Center
Sun 09:29:43 AM 38.2808 -116.4097 256° West 427 491 36,000  Level Salt Lake Center
Sun 09:30:43 AM 38.2525 -116.5564 256° West 427 491 36,000  Level Salt Lake Center
Sun 09:31:32 AM 38.2292 -116.6731 256° West 425 489 36,000  Level Oakland Center
Sun 09:32:32 AM 38.1997 -116.8194 256° West 427 491 36,000  Level Oakland Center
Sun 09:33:33 AM 38.1708 -116.9633 256° West 423 487 36,000  Level Oakland Center
Sun 09:34:34 AM 38.1425 -117.1042 256° West 421 484 36,000  Level Oakland Center
Sun 09:35:34 AM 38.1114 -117.2503 255° West 427 491 36,000  Level Oakland Center
Sun 09:36:35 AM 38.0847 -117.3808 255° West 424 488 36,000  Level Oakland Center
Sun 09:37:36 AM 38.0553 -117.5228 255° West 417 480 36,000  Level Oakland Center
Sun 09:38:36 AM 38.0250 -117.6667 255° West 422 486 36,000  Level Oakland Center
Sun 09:39:37 AM 37.9986 -117.8103 257° West 418 481 36,000  Level Oakland Center
Sun 09:40:38 AM 37.9844 -117.9572 263° West 419 482 36,000  Level Oakland Center
Sun 09:41:38 AM 37.9642 -118.1347 262° West 424 488 36,000  Level Oakland Center
Sun 09:42:39 AM 37.9497 -118.2817 263° West 422 486 36,000  Level Oakland Center
Sun 09:43:39 AM 37.9322 -118.4286 261° West 422 486 36,000  Level Oakland Center
Sun 09:44:40 AM 37.9161 -118.5756 262° West 421 484 36,000  Level Oakland Center
Sun 09:45:41 AM 37.8992 -118.7222 262° West 422 486 36,000  Level Oakland Center
Sun 09:46:41 AM 37.8831 -118.8694 262° West 421 484 36,000  Level Oakland Center
Sun 09:47:42 AM 37.8678 -119.0014 262° West 422 486 36,000  Level Oakland Center
Sun 09:48:43 AM 37.8514 -119.1478 262° West 419 482 36,000  Level Oakland Center
Sun 09:49:43 AM 37.8342 -119.2922 261° West 419 482 36,000  Level Oakland Center
Sun 09:50:44 AM 37.8178 -119.4378 262° West 417 480 36,000  Level Oakland Center
Sun 09:51:45 AM 37.8008 -119.5789 261° West 407 468 36,000  Level Oakland Center
Sun 09:52:45 AM 37.7828 -119.7233 261° West 414 476 36,000 -446 Level Oakland Center
Sun 09:53:46 AM 37.7667 -119.8675 262° West 414 476 35,100 -1,770 Descending Oakland Center
Sun 09:54:47 AM 37.7442 -120.0414 261° West 418 481 32,400 -2,331 Descending Oakland Center
Sun 09:55:47 AM 37.7264 -120.1831 261° West 411 473 30,400 -1,934 Descending Oakland Center
Sun 09:56:48 AM 37.7092 -120.3225 261° West 403 464 28,500 -1,934 Descending Oakland Center
Sun 09:57:48 AM 37.6931 -120.4564 261° West 391 450 26,500 -2,033 Descending Oakland Center
Sun 09:58:49 AM 37.6747 -120.5892 260° West 384 442 24,400 -2,069 Descending Oakland Center
Sun 09:59:44 AM 37.6667 -120.7167 265° West 381 438 22,500 -2,243 Descending Northern Cal TRACON
Sun 10:00:44 AM 37.6500 -120.8333 260° West 381 438 20,100 -1,350 Descending Northern Cal TRACON
Sun 10:01:44 AM 37.6333 -120.9667 261° West 358 412 19,800 -1,579 Descending Northern Cal TRACON
Sun 10:02:38 AM 37.6167 -121.0833 260° West 378 435 17,100 -2,700 Descending Northern Cal TRACON
Sun 10:03:44 AM 37.6000 -121.2167 261° West 372 428 14,400 -2,333 Descending Northern Cal TRACON
Sun 10:04:44 AM 37.5833 -121.3500 261° West 358 412 12,200 -1,750 Descending Northern Cal TRACON
Sun 10:05:44 AM 37.5667 -121.4667 260° West 345 397 10,900 -600 Descending Northern Cal TRACON
Sun 10:06:44 AM 37.5500 -121.5667 258° West 306 352 11,000 53 Climbing Northern Cal TRACON
Sun 10:07:38 AM 37.5500 -121.6500 270° West 276 318 11,000 -316 Level Northern Cal TRACON
Sun 10:08:38 AM 37.5000 -121.7333 233° Southwest 244 281 10,400 -550 Descending Northern Cal TRACON
Sun 10:09:38 AM 37.4667 -121.7833 230° Southwest 223 257 9,900 -950 Descending Northern Cal TRACON
Sun 10:10:38 AM 37.4500 -121.8500 253° West 204 235 8,500 -950 Descending Northern Cal TRACON
Sun 10:11:38 AM 37.4333 -121.9167 253° West 203 234 8,000 -737 Descending Northern Cal TRACON
Sun 10:12:32 AM 37.4500 -121.9833 287° West 198 228 7,100 -947 Descending Northern Cal TRACON
Sun 10:13:32 AM 37.4833 -122.0333 310° West 177 204 6,200 -950 Descending Northern Cal TRACON
Sun 10:14:32 AM 37.5000 -122.0833 293° West 143 165 5,200 -1,200 Descending Northern Cal TRACON
Sun 10:15:32 AM 37.5167 -122.1333 293° West 129 148 3,800 -1,053 Descending Northern Cal TRACON
Sun 10:16:26 AM 37.5333 -122.1667 302° West 125 144 3,200 -737 Descending Northern Cal TRACON
Sun 10:17:26 AM 37.5500 -122.2000 302° West 122 140 2,400 -800 Descending Northern Cal TRACON

Login

Don't have an account? Register now (free) for customized features, flight alerts, and more!